Terminal Aerodrome Forecast
Issued by NWS

Current Version | Previous Version | Text Only | Print | Product List | Glossary Off
Versions: 1 2 3 4 5 6 7 8 9 10 11 12 13 14 15 16 17 18 19 20 21

000
FTUS41 KILN 011131
TAFLCK
TAF
KLCK 011131Z 0112/0212 27008KT P6SM OVC035
      TEMPO 0112/0114 P6SM -SHRA OVC025
     FM011600 25012G22KT P6SM OVC035
     FM020000 25007KT P6SM OVC025=

USA.gov is the U.S. government's official web portal to all federal, state and local government web resources and services.